ADDS TAF Board (Experimental) INFO Settings
IDs: Format: Expanded Condensed

KORD - Chicago/O'Hare Intl, IL, US

Issued at 1953 UTC 02 Sep 2015
Updated at: 2143 UTC 02 Sep 2015
Time2051Z 02/22Z 02/23Z 03/00Z 03/01Z 03/02Z 03/03Z 03/04Z 03/05Z 03/06Z 03/07Z 03/08Z 03/09Z 03/10Z
Type OBS PRVL PRVL PRVL PRVL PRVL PRVL PRVL PRVL PRVL PRVL PRVL PRVL
  [PRB30]  
PRVL
  [PRB30]  
VIS 10 >6 >6 >6 >6 >6 >6 >6 >6 >6 >6 >6 >6
  [5]  
>6
  [5]  
CIG 250 250 250 250 250 250 250 250 250 250 250 250 250
  [50]  
250
  [50]  
Cover BKN BKN BKN BKN BKN BKN BKN BKN BKN BKN BKN BKN BKN
  [BKN]  
BKN
  [BKN]  
FltCat VFR VFR VFR VFR VFR VFR VFR VFR VFR VFR VFR VFR VFR
  [MVFR]  
VFR
  [MVFR]  
WX -- -- -- -- -- -- -- -- -- -- -- -- --
  [-TSRA]  
--
  [-TSRA]  
WDir 240 230 230 230 220 220 220 220 220 220 220 220 220
[220]
220
[220]
WSpd 13 11 11 11 5 5 5 5 5 5 5 5 5
  [5]  
5
  [5]  
WGst 19 -- -- -- -- -- -- -- -- -- -- -- --
  [--]  
--
  [--]  
R04/22
XWnd 5 2 2 2 0 0 0 0 0 0 0 0 0 0
XGst 7 -- -- -- -- -- -- -- -- -- -- -- 0 0
HWnd -12 -11 -11 -11 -5 -5 -5 -5 -5 -5 -5 -5 -5 -5
HGst -18 -- -- -- -- -- -- -- -- -- -- -- 0 0
R09/27
XWnd -6 -7 -7 -7 -4 -4 -4 -4 -4 -4 -4 -4 -4 -4
XGst -9 -- -- -- -- -- -- -- -- -- -- -- 0 0
HWnd -11 -8 -8 -8 -3 -3 -3 -3 -3 -3 -3 -3 -3 -3
HGst -16 -- -- -- -- -- -- -- -- -- -- -- 0 0
R10/28
XWnd -6 -7 -7 -7 -4 -4 -4 -4 -4 -4 -4 -4 -4 -4
XGst -9 -- -- -- -- -- -- -- -- -- -- -- 0 0
HWnd -11 -8 -8 -8 -3 -3 -3 -3 -3 -3 -3 -3 -3 -3
HGst -16 -- -- -- -- -- -- -- -- -- -- -- 0 0
R14/32
XWnd -13 -11 -11 -11 -5 -5 -5 -5 -5 -5 -5 -5 -5 -5
XGst -19 -- -- -- -- -- -- -- -- -- -- -- 0 0
HWnd -2 0 0 0 1 1 1 1 1 1 1 1 1 1
HGst -3 -- -- -- -- -- -- -- -- -- -- -- 0 0

NOTE: TEMPO conditions in [brackets]. Keep in mind TEMPO conditions might be better (lower impact) than prevailing conditions.

Raw TAF
KORD 021953Z 0220/0324 23011KT P6SM SCT050 BKN250
  FM030100 22005KT P6SM SCT050 BKN250
  PROB30 0309/0313 5SM -TSRA BKN050CB
  FM032000 17006KT P6SM SCT035


Raw METAR
KORD 022051Z 24013G19KT 10SM SCT055 BKN250 32/19 A2997 RMK AO2 SLP143 T03170194 58014
KORD 021951Z 24011G18KT 10SM FEW046 SCT060 SCT070 BKN250 31/19 A2999 RMK AO2 SLP150 T03110194
KORD 021851Z 23008KT 10SM FEW045 SCT250 31/20 A3001 RMK AO2 SLP155 T03110200

METAR Board
Radar Display
Forecast Discussion

TAF Board Legend

Potential Impact
Threat None Slight Moderate High
Visibility (sm) ≥5.1 5.1>X≥3 3>X≥1 <1
Ceiling (100 ft) ≥30.1 30.1>X≥10 10>X≥5 <5
Wind Speed (kt) <10 10≤X<20 20≤X<30 ≥30
Wind Gust (kt) <15 15≤X<25 25≤X<35 ≥35
Weather No Wx Reported VCTS,-TS,-FZRA,SN TS,FZRA +TS,+FZRA,+SN